Flight Track Log - Related Links

Times and Time Zones

All times are in EDT time to prevent confusion due to time zone crossing. See the JZA8145 flight status page for this flight to view local times or setup timezone preferences in your user account.

Time Position Orientation Groundspeed Altitude Reporting Facility
EDT Latitude Longitude Course Direction KTS MPH feet Rate Location/Type
Mon 03:05:49 PM 53.2833 -113.6333 167° South 130 150 3,200  Level Edmonton Center
Mon 03:06:49 PM 53.2333 -113.6500 191° South 140 161 4,900 1,600 Climbing Edmonton Center
Mon 03:07:49 PM 53.2000 -113.6500 180° South 160 184 6,400 1,450 Climbing Edmonton Center
Mon 03:08:49 PM 53.1500 -113.6333 169° South 160 184 7,800 1,250 Climbing Edmonton Center
Mon 03:09:00 PM 53.1186 -113.8445 167° South  Level FlightAware Approximate
Mon 03:09:49 PM 53.1000 -113.6333 180° South 160 184 8,900  Level Edmonton Center
Mon 03:10:00 PM 53.0501 -113.8192 167° South  Level FlightAware Approximate
Mon 03:10:49 PM 53.0500 -113.6167 169° South 210 242 9,000  Level Edmonton Center
Mon 03:11:00 PM 52.9816 -113.7939 167° South  Level FlightAware Approximate
Mon 03:11:49 PM 52.9833 -113.6333 189° South 240 276 9,000  Level Edmonton Center
Mon 03:12:49 PM 52.9167 -113.6167 171° South 250 288 9,000  Level Edmonton Center
Mon 03:13:49 PM 52.8500 -113.6333 189° South 250 288 9,000  Level Edmonton Center
Mon 03:14:49 PM 52.7833 -113.6167 171° South 250 288 9,000  Level Edmonton Center
Mon 03:15:49 PM 52.7167 -113.6333 189° South 250 288 9,000  Level Edmonton Center
Mon 03:16:49 PM 52.6500 -113.6167 171° South 250 288 9,000  Level Edmonton Center
Mon 03:17:49 PM 52.5667 -113.6333 187° South 250 288 9,000  Level Edmonton Center
Mon 03:18:49 PM 52.5000 -113.6167 171° South 260 299 9,000  Level Edmonton Center
Mon 03:19:49 PM 52.4167 -113.6167 180° South 260 299 9,000  Level Edmonton Center
Mon 03:20:49 PM 52.3500 -113.6167 180° South 260 299 9,000  Level Edmonton Center
Mon 03:21:49 PM 52.2667 -113.6167 180° South 250 288 9,000  Level Edmonton Center
Mon 03:22:49 PM 52.2000 -113.6167 180° South 240 276 9,000  Level Edmonton Center
Mon 03:23:49 PM 52.1333 -113.6167 180° South 230 265 9,000  Level Edmonton Center
Mon 03:24:49 PM 52.0667 -113.6167 180° South 230 265 9,000  Level Edmonton Center
Mon 03:25:49 PM 52.0167 -113.6333 192° South 230 265 9,000  Level Edmonton Center
Mon 03:26:49 PM 51.9500 -113.6167 171° South 220 253 9,000  Level Edmonton Center
Mon 03:27:49 PM 51.8833 -113.6000 171° South 220 253 9,000  Level Edmonton Center
Mon 03:28:49 PM 51.8333 -113.6167 192° South 230 265 9,000  Level Edmonton Center
Mon 03:29:49 PM 51.7667 -113.6333 189° South 230 265 9,000  Level Edmonton Center
Mon 03:30:49 PM 51.7167 -113.6500 192° South 230 265 9,000  Level Edmonton Center
Mon 03:31:49 PM 51.6333 -113.6833 194° South 230 265 9,000  Level Edmonton Center
Mon 03:32:49 PM 51.5667 -113.7000 189° South 240 276 9,000  Level Edmonton Center
Mon 03:33:49 PM 51.5167 -113.7500 212° Southwest 230 265 9,000  Level Edmonton Center
Mon 03:34:49 PM 51.4500 -113.7500 180° South 240 276 9,000 -150 Level Edmonton Center
Mon 03:35:49 PM 51.3833 -113.7667 189° South 240 276 8,700 -700 Descending Edmonton Center
Mon 03:36:49 PM 51.3167 -113.7500 171° South 260 299 7,600 -1,000 Descending Edmonton Center
Mon 03:37:49 PM 51.2500 -113.7500 180° South 250 288 6,700 -1,050 Descending Edmonton Center
Mon 03:38:49 PM 51.1833 -113.7500 180° South 240 276 5,500 -900 Descending Edmonton Center
Mon 03:39:49 PM 51.1167 -113.8000 205° Southwest 210 242 4,900 -300 Descending Edmonton Center
Mon 03:40:49 PM 51.1000 -113.8667 248° West 180 207 4,900  Level Edmonton Center
Mon 03:41:49 PM 51.0667 -113.9167 223° Southwest 160 184 4,900 -300 Level Edmonton Center
Mon 03:42:49 PM 51.0667 -113.9833 270° West 150 173 4,300 -700 Descending Edmonton Center
Mon 03:43:49 PM 51.0833 -114.0333 298° West 110 127 3,500 -800 Descending Edmonton Center

Login

Don't have an account? Register now (free) for customized features, flight alerts, and more!